Station KVAF - East Breaks 643 / Boomvang Spar (Anadarko) Image indicating link to RSS feed of recent meteorological observations for station KVAF


Conditions at KVAF as of
(3:20 am CDT)
0820 GMT on 05/26/2024:
     

Click on the graph icon in the table below to see a time series plot of the last five days of that observation.

5-day plot - Wind Direction Wind Direction (WDIR):SSE ( 150 deg true )
5-day plot - Wind Speed Wind Speed (WSPD): 19.0 kts
5-day plot - Air Temperature Air Temperature (ATMP): 82.4 °F
5-day plot - Dew Point Dew Point (DEWP): 75.2 °F
5-day plot - Visibility Visibility (VIS): 4.3 nmi
Previous observations
TIME
(CDT)
5-day plot - Wind Direction
WDIR
 
5-day plot - Wind Speed
WSPD
kts
5-day plot - Wind Gust
GST
kts
5-day plot - Wave Height
WVHT
ft
5-day plot - Dominant Wave Period
DPD
sec
5-day plot - Average Wave Period
APD
sec
5-day plot - Mean Wave Direction
MWD
 
5-day plot - Atmospheric Pressure
PRES
in
5-day plot - Pressure Tendency
PTDY
in
5-day plot - Air Temperature
ATMP
°F
5-day plot - Water Temperature
WTMP
°F
5-day plot - Dew Point
DEWP
°F
5-day plot - Salinity
SAL
psu
5-day plot - Visibility
VIS
nmi
5-day plot - Tide (above MLLW)
TIDE
ft
2024-05-26 03:00 amSSE 21.0------- 82.4- 75.2- 4.3-
2024-05-26 02:40 amSSE 15.9------- 82.4- 75.2- 4.3-
2024-05-26 02:20 amSSE 21.0 26.0------ 82.4- 75.2- 3.5-
2024-05-26 02:00 amSSE 19.0 26.0------ 82.4- 75.2- 4.3-
2024-05-26 01:40 amSSE 13.0 20.0------ 82.4- 75.2- 4.3-
2024-05-26 01:20 amSSE 17.1 22.9------ 84.2- 75.2- 3.5-
2024-05-26 01:00 amSSE 13.0 21.0------ 82.4- 75.2- 3.5-
2024-05-26 12:40 amSSE 11.1 17.1------ 84.2- 75.2- 3.5-
2024-05-26 12:20 amSSE 12.0 24.1------ 84.2- 75.2- 3.5-
2024-05-26 12:00 amSSE 17.1------- 84.2- 75.2- 3.5-
2024-05-25 11:40 pmSSE 19.0------- 84.2- 75.2- 3.5-
2024-05-25 11:20 pmSSE 9.9 19.0------ 82.4- 77.0- 3.5-
2024-05-25 11:00 pmSSE 8.9 15.0------ 82.4- 77.0- 3.5-
2024-05-25 10:40 pmSSE 11.1 18.1------ 82.4- 77.0- 3.5-
2024-05-25 10:20 pmSSE 15.0 21.0------ 82.4- 75.2- 3.5-
2024-05-25 10:00 pmSSE 11.1 17.1------ 82.4- 75.2- 4.3-
2024-05-25 09:40 pmSSE 8.9 14.0------ 82.4- 75.2- 4.3-
2024-05-25 09:20 pm SE 8.0 14.0------ 82.4- 77.0- 3.5-
2024-05-25 09:00 pmSSE 12.0 20.0------ 82.4- 77.0- 4.3-
2024-05-25 08:40 pm SE 11.1 18.1------ 82.4- 75.2- 4.3-
2024-05-25 08:20 pm SE 12.0 22.0------ 82.4- 77.0- 2.6-
2024-05-25 08:00 pmSSE 9.9 17.1------ 82.4- 77.0- 2.6-
2024-05-25 07:40 pmSSE 8.0 14.0------ 84.2- 75.2- 2.6-
2024-05-25 07:20 pm SE 8.0------- 84.2- 77.0- 2.6-
2024-05-25 07:00 pm SE 8.0------- 84.2- 77.0- 2.6-
2024-05-25 06:40 pm SE 8.9 17.1------ 84.2- 77.0- 2.6-
2024-05-25 06:20 pm SE 7.0 14.0------ 84.2- 77.0- 2.6-
2024-05-25 06:00 pm SE 8.0 18.1------ 84.2- 77.0- 2.6-
2024-05-25 05:40 pm SE 8.9 15.9------ 84.2- 77.0- 3.5-
2024-05-25 05:20 pmESE 11.1------- 84.2- 77.0- 3.5-
2024-05-25 05:00 pmESE 9.9 17.1------ 86.0- 77.0- 3.5-
2024-05-25 04:40 pmESE 12.0 17.1------ 86.0- 77.0- 3.5-
2024-05-25 04:20 pmESE 9.9 15.0------ 86.0- 77.0- 2.6-
2024-05-25 04:00 pmESE 8.9 14.0------ 86.0- 77.0- 3.5-
2024-05-25 03:40 pmESE 8.9------- 86.0- 77.0- 3.5-
2024-05-25 03:20 pmESE 9.9------- 86.0- 77.0- 3.5-
2024-05-25 03:00 pm SE 8.0 13.0------ 86.0- 77.0- 3.5-
2024-05-25 02:40 pmESE 11.1------- 86.0- 77.0- 3.5-
2024-05-25 02:20 pm SE 8.0------- 86.0- 75.2- 3.5-
2024-05-25 02:00 pm SE 7.0------- 86.0- 75.2- 3.5-
2024-05-25 01:40 pm SE 7.0 13.0------ 86.0- 75.2- 3.5-
2024-05-25 01:20 pm SE 7.0 12.0------ 86.0- 75.2- 3.5-
2024-05-25 01:00 pmSSE 8.0------- 86.0- 75.2- 3.5-
2024-05-25 12:40 pm SE 11.1------- 86.0- 75.2- 3.5-
2024-05-25 12:20 pmSSE 8.9 18.1------ 86.0- 75.2- 3.5-
2024-05-25 12:00 pmSSE 11.1 17.1------ 86.0- 75.2- 3.5-
2024-05-25 11:40 amSSE 11.1 19.0------ 86.0- 75.2- 3.5-
2024-05-25 11:20 am SE 13.0------- 86.0- 75.2- 3.5-
2024-05-25 11:00 am SE 9.9------- 86.0- 75.2- 3.5-
2024-05-25 10:40 am SE 6.0------- 86.0- 75.2- 3.5-
2024-05-25 10:20 am SE 7.0 13.0------ 86.0- 75.2- 3.5-
2024-05-25 10:00 am SE 8.0------- 86.0- 75.2- 3.5-
2024-05-25 09:40 am SE 8.0------- 86.0- 75.2- 3.5-
2024-05-25 09:20 am SE 7.0 15.0------ 84.2- 75.2- 3.5-
2024-05-25 09:00 am SE 9.9------- 84.2- 75.2- 3.5-
2024-05-25 08:40 am SE 8.0------- 84.2- 75.2- 3.5-
2024-05-25 08:20 am SE 8.0------- 84.2- 75.2- 3.5-
2024-05-25 08:00 am SE 8.0 15.0------ 84.2- 75.2- 3.5-
2024-05-25 07:40 am SE 9.9------- 82.4- 75.2- 3.5-
2024-05-25 07:20 am SE 8.9 15.9------ 82.4- 75.2- 3.5-
2024-05-25 07:00 amSSE 15.0------- 82.4- 75.2- 3.5-
2024-05-25 06:40 amSSE 14.0------- 82.4- 75.2- 3.5-
2024-05-25 06:20 amSSE 15.9------- 82.4- 75.2- 4.3-
2024-05-25 06:00 am SE 11.1 17.1------ 82.4- 75.2- 4.3-
2024-05-25 05:40 amSSE 13.0------- 82.4- 75.2- 4.3-
2024-05-25 05:20 amSSE 15.0------- 82.4- 75.2- 4.3-
2024-05-25 05:00 amSSE 17.1------- 82.4- 75.2- 4.3-
2024-05-25 04:40 amSSE 18.1------- 82.4- 75.2- 4.3-
2024-05-25 04:20 amSSE 18.1------- 82.4- 75.2- 4.3-
2024-05-25 04:00 amSSE 17.1------- 82.4- 75.2- 4.3-
2024-05-25 03:40 amSSE 15.0------- 82.4- 75.2- 4.3-
2024-05-25 03:20 amSSE 12.0------- 82.4- 75.2- 4.3-
2024-05-25 03:00 amSSE 8.9 17.1------ 82.4- 75.2- 4.3-